Time;durP1;ratioP1;P1;durP2;ratioP2;P2;SDS_P1;SDS_P2;PMS_P1;PMS_P2;Temp;Humidity;BMP_temperature;BMP_pressure;BME280_temperature;BME280_humidity;BME280_pressure;Samples;Min_cycle;Max_cycle;Signal;HPM_P1;HPM_P2
2023/02/17 00:02:16;;;;;;;;;;;;;;;14.31;nan;101895.25;5004219;28;19918;-86
2023/02/17 00:04:42;;;;;;;;;;;;;;;14.26;nan;101897.03;5001998;28;19926;-86
2023/02/17 00:07:07;;;;;;;;;;;;;;;14.23;nan;101898.34;5002726;28;19925;-86
2023/02/17 00:09:33;;;;;;;;;;;;;;;14.23;nan;101901.06;5003063;28;19921;-86
2023/02/17 00:11:58;;;;;;;;;;;;;;;14.19;nan;101891.81;5005207;28;19917;-86
2023/02/17 00:14:23;;;;;;;;;;;;;;;14.21;nan;101893.22;5001999;28;19936;-86
2023/02/17 00:16:49;;;;;;;;;;;;;;;14.18;nan;101880.22;5001361;28;19921;-86
2023/02/17 00:19:23;;;;;;;;;;;;;;;14.18;nan;101885.63;5003639;28;19925;-86
2023/02/17 00:21:55;;;;;;;;;;;;;;;14.20;nan;101882.69;4997359;28;20410;-86
2023/02/17 00:24:22;;;;;;;;;;;;;;;14.23;nan;101873.28;5001294;28;20120;-86
2023/02/17 00:26:47;;;;;;;;;;;;;;;14.22;nan;101867.06;5003081;28;19921;-86
2023/02/17 00:29:13;;;;;;;;;;;;;;;14.19;nan;101870.25;4999588;28;20563;-85
2023/02/17 00:31:39;;;;;;;;;;;;;;;14.18;nan;101865.91;5004464;28;19972;-86
2023/02/17 00:34:04;;;;;;;;;;;;;;;14.19;nan;101856.78;5006100;28;19921;-86
2023/02/17 00:36:29;;;;;;;;;;;;;;;14.17;nan;101862.41;5003269;28;20000;-86
2023/02/17 00:38:55;;;;;;;;;;;;;;;14.15;nan;101851.03;5002833;28;19923;-86
2023/02/17 00:41:21;;;;;;;;;;;;;;;14.13;nan;101850.47;5006498;28;20154;-86
2023/02/17 00:43:47;;;;;;;;;;;;;;;14.12;nan;101850.72;4996713;28;19924;-86
2023/02/17 00:46:13;;;;;;;;;;;;;;;14.07;nan;101846.06;5002744;28;19921;-86
2023/02/17 00:48:39;;;;;;;;;;;;;;;14.07;nan;101837.16;5001366;28;19921;-86
2023/02/17 00:51:04;;;;;;;;;;;;;;;14.05;nan;101833.91;5000590;28;19917;-86
2023/02/17 00:53:30;;;;;;;;;;;;;;;14.04;nan;101830.41;5005755;28;19972;-86
2023/02/17 00:55:55;;;;;;;;;;;;;;;14.03;nan;101831.47;5004883;28;19917;-86
2023/02/17 00:58:21;;;;;;;;;;;;;;;14.00;nan;101826.53;4997421;28;20000;-86
2023/02/17 01:00:49;;;;;;;;;;;;;;;14.00;nan;101823.84;4998702;28;19976;-86
2023/02/17 01:03:14;;;;;;;;;;;;;;;13.98;nan;101825.97;5003878;28;20061;-86
2023/02/17 01:05:43;;;;;;;;;;;;;;;14.01;nan;101828.19;5004060;28;19918;-86
2023/02/17 01:08:09;;;;;;;;;;;;;;;14.01;nan;101822.81;4996930;28;19984;-86
2023/02/17 01:10:35;;;;;;;;;;;;;;;14.01;nan;101828.19;4999576;28;20388;-86
2023/02/17 01:13:01;;;;;;;;;;;;;;;14.03;nan;101823.38;5000301;28;19924;-86
2023/02/17 01:15:26;;;;;;;;;;;;;;;14.07;nan;101821.00;5000483;28;20282;-86
2023/02/17 01:17:51;;;;;;;;;;;;;;;14.04;nan;101821.50;5004336;28;19924;-86
2023/02/17 01:20:17;;;;;;;;;;;;;;;14.02;nan;101812.84;5006015;28;19979;-86
2023/02/17 01:22:42;;;;;;;;;;;;;;;14.01;nan;101813.91;5002005;28;19928;-86
2023/02/17 01:25:08;;;;;;;;;;;;;;;13.99;nan;101816.00;5003063;28;20362;-86
2023/02/17 01:27:34;;;;;;;;;;;;;;;13.90;nan;101810.22;5005038;28;19921;-86
2023/02/17 01:29:59;;;;;;;;;;;;;;;13.90;nan;101807.53;5001209;28;20024;-86
2023/02/17 01:32:24;;;;;;;;;;;;;;;13.91;nan;101806.47;5002890;28;20004;-86
2023/02/17 01:34:50;;;;;;;;;;;;;;;13.95;nan;101801.41;5000128;28;19964;-86
2023/02/17 01:37:15;;;;;;;;;;;;;;;13.97;nan;101800.09;5001944;28;19925;-86
2023/02/17 01:39:40;;;;;;;;;;;;;;;14.01;nan;101800.44;5003372;28;19917;-87
2023/02/17 01:42:11;;;;;;;;;;;;;;;14.05;nan;101794.31;5000895;28;19929;-86
2023/02/17 01:44:56;;;;;;;;;;;;;;;14.03;nan;101788.34;4986616;28;20517;-86
2023/02/17 01:47:22;;;;;;;;;;;;;;;14.03;nan;101788.34;5000135;28;20003;-86
2023/02/17 01:49:47;;;;;;;;;;;;;;;13.99;nan;101775.59;4999769;28;19952;-85
2023/02/17 01:52:15;;;;;;;;;;;;;;;14.01;nan;101778.88;4997420;28;19930;-86
2023/02/17 01:54:46;;;;;;;;;;;;;;;13.98;nan;101780.16;4998752;28;19921;-86
2023/02/17 01:57:13;;;;;;;;;;;;;;;13.99;nan;101760.25;4999810;28;19928;-86
2023/02/17 01:59:39;;;;;;;;;;;;;;;14.01;nan;101757.31;4998744;28;19921;-86
2023/02/17 02:02:05;;;;;;;;;;;;;;;14.00;nan;101755.66;5001376;28;19922;-86
2023/02/17 02:04:32;;;;;;;;;;;;;;;14.01;nan;101755.44;5001500;28;19932;-86
2023/02/17 02:06:58;;;;;;;;;;;;;;;14.01;nan;101754.63;5003490;28;20060;-86
2023/02/17 02:09:29;;;;;;;;;;;;;;;14.00;nan;101737.63;4998328;28;19917;-86
2023/02/17 02:11:55;;;;;;;;;;;;;;;13.98;nan;101731.66;4998467;28;20470;-86
2023/02/17 02:14:21;;;;;;;;;;;;;;;13.97;nan;101730.03;4996435;28;20005;-86
2023/02/17 02:16:46;;;;;;;;;;;;;;;13.97;nan;101724.66;4997467;28;20037;-86
2023/02/17 02:19:30;;;;;;;;;;;;;;;13.92;nan;101711.09;5001599;28;19949;-86
2023/02/17 02:22:07;;;;;;;;;;;;;;;13.90;nan;101703.28;4992783;28;20162;-86
2023/02/17 02:24:53;;;;;;;;;;;;;;;13.87;nan;101692.19;4999822;28;19971;-86
2023/02/17 02:27:33;;;;;;;;;;;;;;;13.79;nan;101688.00;4999994;28;19924;-86
2023/02/17 02:30:14;;;;;;;;;;;;;;;13.80;nan;101686.13;4999501;28;20248;-86
2023/02/17 02:32:48;;;;;;;;;;;;;;;13.76;nan;101682.31;4999131;28;20190;-86
2023/02/17 02:35:26;;;;;;;;;;;;;;;13.75;nan;101675.28;4997943;28;19940;-85
2023/02/17 02:38:10;;;;;;;;;;;;;;;13.75;nan;101677.97;4992161;28;19931;-86
2023/02/17 02:40:39;;;;;;;;;;;;;;;13.74;nan;101676.34;5003217;28;20011;-86
2023/02/17 02:43:05;;;;;;;;;;;;;;;13.73;nan;101675.53;5002349;28;19921;-86
2023/02/17 02:45:30;;;;;;;;;;;;;;;13.71;nan;101668.78;5001622;28;19971;-86
2023/02/17 02:47:56;;;;;;;;;;;;;;;13.68;nan;101671.97;4998777;28;19917;-86
2023/02/17 02:50:28;;;;;;;;;;;;;;;13.72;nan;101662.31;4999393;28;19979;-86
2023/02/17 02:52:57;;;;;;;;;;;;;;;13.70;nan;101654.50;4996134;28;20350;-86
2023/02/17 02:55:22;;;;;;;;;;;;;;;13.64;nan;101651.94;4998533;28;20308;-86
2023/02/17 02:57:54;;;;;;;;;;;;;;;13.65;nan;101646.34;4997117;28;20020;-86
2023/02/17 03:00:24;;;;;;;;;;;;;;;13.59;nan;101634.66;4998881;28;20454;-88
2023/02/17 03:02:53;;;;;;;;;;;;;;;13.56;nan;101632.47;4990951;28;19918;-86
2023/02/17 03:05:18;;;;;;;;;;;;;;;13.54;nan;101629.22;4997963;28;19995;-86
2023/02/17 03:07:47;;;;;;;;;;;;;;;13.54;nan;101629.22;4997517;28;19917;-86
2023/02/17 03:10:13;;;;;;;;;;;;;;;13.50;nan;101625.38;4998458;28;20024;-86
2023/02/17 03:12:38;;;;;;;;;;;;;;;13.52;nan;101628.63;5000256;28;20226;-86
2023/02/17 03:15:10;;;;;;;;;;;;;;;13.51;nan;101624.31;5000000;28;20285;-86
2023/02/17 03:17:35;;;;;;;;;;;;;;;13.52;nan;101623.25;4979813;28;19937;-86
2023/02/17 03:20:03;;;;;;;;;;;;;;;13.56;nan;101624.38;5001217;28;20131;-85
2023/02/17 03:22:31;;;;;;;;;;;;;;;13.53;nan;101621.38;5001123;28;19941;-86
2023/02/17 03:24:58;;;;;;;;;;;;;;;13.50;nan;101617.31;5003097;28;20032;-86
2023/02/17 03:27:24;;;;;;;;;;;;;;;13.51;nan;101618.13;4985725;28;20382;-86
2023/02/17 03:29:49;;;;;;;;;;;;;;;13.52;nan;101614.38;4999242;28;19922;-86
2023/02/17 03:32:15;;;;;;;;;;;;;;;13.53;nan;101616.00;5001310;28;19917;-86
2023/02/17 03:34:40;;;;;;;;;;;;;;;13.51;nan;101602.78;5003977;28;19956;-85
2023/02/17 03:37:05;;;;;;;;;;;;;;;13.51;nan;101602.78;5000766;28;19917;-86
2023/02/17 03:39:31;;;;;;;;;;;;;;;13.52;nan;101609.78;5000448;28;20802;-85
2023/02/17 03:41:56;;;;;;;;;;;;;;;13.50;nan;101601.16;5001549;28;19917;-86
2023/02/17 03:44:21;;;;;;;;;;;;;;;13.49;nan;101601.41;5002361;28;19972;-85
2023/02/17 03:46:47;;;;;;;;;;;;;;;13.46;nan;101600.00;4982025;28;19925;-86
2023/02/17 03:49:12;;;;;;;;;;;;;;;13.42;nan;101601.56;5000504;28;20306;-86
2023/02/17 03:51:38;;;;;;;;;;;;;;;13.39;nan;101598.53;5004785;28;19968;-86
2023/02/17 03:54:04;;;;;;;;;;;;;;;13.39;nan;101588.59;5007279;28;19918;-85
2023/02/17 03:56:29;;;;;;;;;;;;;;;13.38;nan;101595.03;4999739;28;19917;-85
2023/02/17 03:58:55;;;;;;;;;;;;;;;13.42;nan;101582.72;5005854;28;20370;-85
2023/02/17 04:01:20;;;;;;;;;;;;;;;13.38;nan;101584.28;5005761;28;19929;-86
2023/02/17 04:03:45;;;;;;;;;;;;;;;13.40;nan;101592.91;5003944;28;20398;-86
2023/02/17 04:06:11;;;;;;;;;;;;;;;13.42;nan;101582.72;5000328;28;19948;-85
2023/02/17 04:08:37;;;;;;;;;;;;;;;13.40;nan;101579.44;5005419;28;19924;-86
2023/02/17 04:11:03;;;;;;;;;;;;;;;13.36;nan;101581.00;5004668;28;19945;-86
2023/02/17 04:13:29;;;;;;;;;;;;;;;13.38;nan;101576.19;5003155;28;20000;-86
2023/02/17 04:15:54;;;;;;;;;;;;;;;13.44;nan;101572.50;5003274;28;20020;-86
2023/02/17 04:18:20;;;;;;;;;;;;;;;13.45;nan;101566.06;4999432;28;19924;-86
2023/02/17 04:20:47;;;;;;;;;;;;;;;13.44;nan;101564.44;4999762;28;19921;-86
2023/02/17 04:23:13;;;;;;;;;;;;;;;13.40;nan;101560.59;5005082;28;19921;-86
2023/02/17 04:25:38;;;;;;;;;;;;;;;13.38;nan;101553.84;5005096;28;19961;-86
2023/02/17 04:28:04;;;;;;;;;;;;;;;13.38;nan;101549.28;5000428;28;20283;-86
2023/02/17 04:30:30;;;;;;;;;;;;;;;13.35;nan;101546.28;5001368;28;19926;-86
2023/02/17 04:32:55;;;;;;;;;;;;;;;13.33;nan;101543.81;5008127;28;19945;-86
2023/02/17 04:35:21;;;;;;;;;;;;;;;13.30;nan;101542.44;5002530;28;19925;-86
2023/02/17 04:37:46;;;;;;;;;;;;;;;13.30;nan;101541.63;5004245;28;19924;-85
2023/02/17 04:40:12;;;;;;;;;;;;;;;13.28;nan;101527.59;5004041;28;20404;-86
2023/02/17 04:42:37;;;;;;;;;;;;;;;13.34;nan;101523.91;5014909;23;19933;-85
2023/02/17 04:45:03;;;;;;;;;;;;;;;13.33;nan;101524.97;4985210;28;19953;-85
2023/02/17 04:47:29;;;;;;;;;;;;;;;13.29;nan;101526.56;4969346;28;20228;-85
2023/02/17 04:49:54;;;;;;;;;;;;;;;13.29;nan;101526.56;4988014;28;19921;-85
2023/02/17 04:52:20;;;;;;;;;;;;;;;13.29;nan;101519.28;4980888;28;19965;-85
2023/02/17 04:54:45;;;;;;;;;;;;;;;13.30;nan;101518.22;4973767;28;20390;-85
2023/02/17 04:57:10;;;;;;;;;;;;;;;13.34;nan;101518.53;4971500;28;19917;-85
2023/02/17 04:59:36;;;;;;;;;;;;;;;13.35;nan;101517.47;4971648;28;19922;-85
2023/02/17 05:02:01;;;;;;;;;;;;;;;13.33;nan;101522.28;4982800;28;19924;-85
2023/02/17 05:04:26;;;;;;;;;;;;;;;13.31;nan;101510.97;4974087;28;19922;-85
2023/02/17 05:06:52;;;;;;;;;;;;;;;13.32;nan;101512.59;4973814;28;20276;-85
2023/02/17 05:09:18;;;;;;;;;;;;;;;13.34;nan;101518.53;4979116;28;19918;-85
2023/02/17 05:11:43;;;;;;;;;;;;;;;13.37;nan;101515.34;4979787;28;20306;-84
2023/02/17 05:14:09;;;;;;;;;;;;;;;13.40;nan;101520.22;4981037;28;19929;-85
2023/02/17 05:16:34;;;;;;;;;;;;;;;13.42;nan;101526.19;4957106;28;20016;-85
2023/02/17 05:18:59;;;;;;;;;;;;;;;13.50;nan;101517.69;4971824;28;19914;-85
2023/02/17 05:21:25;;;;;;;;;;;;;;;13.58;nan;101516.44;4980204;28;20154;-85
2023/02/17 05:23:50;;;;;;;;;;;;;;;13.59;nan;101505.41;4972814;28;19926;-86
2023/02/17 05:26:15;;;;;;;;;;;;;;;13.58;nan;101508.34;4966125;28;19930;-85
2023/02/17 05:28:41;;;;;;;;;;;;;;;13.61;nan;101499.78;4969028;28;20546;-85
2023/02/17 05:31:06;;;;;;;;;;;;;;;13.61;nan;101503.28;4965930;28;20920;-85
2023/02/17 05:33:32;;;;;;;;;;;;;;;13.64;nan;101495.75;4972626;28;19922;-85
2023/02/17 05:36:04;;;;;;;;;;;;;;;13.61;nan;101489.81;4964898;28;20216;-85
2023/02/17 05:38:30;;;;;;;;;;;;;;;13.62;nan;101487.94;4971592;28;20492;-85
2023/02/17 05:40:55;;;;;;;;;;;;;;;13.65;nan;101487.47;4969636;28;19926;-85
2023/02/17 05:43:20;;;;;;;;;;;;;;;13.67;nan;101489.91;4972545;28;19922;-85
2023/02/17 05:45:46;;;;;;;;;;;;;;;13.67;nan;101489.91;4969231;28;19953;-85
2023/02/17 05:48:11;;;;;;;;;;;;;;;13.72;nan;101489.97;4967190;28;19921;-85
2023/02/17 05:50:36;;;;;;;;;;;;;;;13.71;nan;101482.94;4975203;28;19928;-85
2023/02/17 05:53:02;;;;;;;;;;;;;;;13.71;nan;101483.75;4968899;28;19921;-85
2023/02/17 05:55:27;;;;;;;;;;;;;;;13.73;nan;101488.91;4973916;28;19918;-85
2023/02/17 05:57:53;;;;;;;;;;;;;;;13.77;nan;101484.63;4966028;28;19922;-85
2023/02/17 06:00:18;;;;;;;;;;;;;;;13.76;nan;101481.13;4970594;28;19918;-85
2023/02/17 06:02:43;;;;;;;;;;;;;;;13.76;nan;101467.66;4965541;28;20303;-85
2023/02/17 06:05:09;;;;;;;;;;;;;;;13.75;nan;101470.59;4970369;28;20299;-85
2023/02/17 06:07:35;;;;;;;;;;;;;;;13.78;nan;101468.22;4968508;28;19949;-85
2023/02/17 06:10:00;;;;;;;;;;;;;;;13.76;nan;101458.75;4969447;28;19964;-85
2023/02/17 06:12:26;;;;;;;;;;;;;;;13.76;nan;101448.00;4970928;28;20009;-85
2023/02/17 06:14:51;;;;;;;;;;;;;;;13.74;nan;101442.03;4948592;28;19965;-85
2023/02/17 06:17:17;;;;;;;;;;;;;;;13.71;nan;101434.47;4972541;28;19929;-85
2023/02/17 06:19:42;;;;;;;;;;;;;;;13.71;nan;101426.41;4970805;28;20012;-85
2023/02/17 06:22:07;;;;;;;;;;;;;;;13.72;nan;101428.03;4945583;28;19929;-85
2023/02/17 06:24:33;;;;;;;;;;;;;;;13.72;nan;101436.09;4974261;28;19925;-85
2023/02/17 06:26:59;;;;;;;;;;;;;;;13.74;nan;101437.47;4974115;28;20458;-85
2023/02/17 06:29:26;;;;;;;;;;;;;;;13.78;nan;101427.00;4969568;28;19922;-85
2023/02/17 06:31:51;;;;;;;;;;;;;;;13.81;nan;101423.78;4967726;28;20070;-85
2023/02/17 06:34:19;;;;;;;;;;;;;;;13.80;nan;101427.56;4969037;28;20392;-85
2023/02/17 06:36:45;;;;;;;;;;;;;;;13.86;nan;101429.25;4977739;28;19918;-85
2023/02/17 06:39:10;;;;;;;;;;;;;;;13.89;nan;101426.06;4956234;28;20840;-84
2023/02/17 06:41:36;;;;;;;;;;;;;;;13.93;nan;101426.34;4969433;28;20276;-85
2023/02/17 06:44:01;;;;;;;;;;;;;;;13.97;nan;101428.28;4969936;28;19922;-85
2023/02/17 06:46:26;;;;;;;;;;;;;;;13.95;nan;101424.22;4972791;28;19961;-85
2023/02/17 06:48:52;;;;;;;;;;;;;;;13.94;nan;101431.50;4971779;28;19918;-85
2023/02/17 06:51:17;;;;;;;;;;;;;;;13.92;nan;101420.16;4974972;28;19924;-84
2023/02/17 06:53:43;;;;;;;;;;;;;;;14.02;nan;101422.16;4968852;28;19944;-85
2023/02/17 06:56:08;;;;;;;;;;;;;;;14.03;nan;101416.50;4977282;28;19922;-85
2023/02/17 06:58:35;;;;;;;;;;;;;;;14.04;nan;101420.81;4976031;28;19922;-85
2023/02/17 07:01:00;;;;;;;;;;;;;;;14.08;nan;101413.84;4976244;28;19930;-85
2023/02/17 07:03:26;;;;;;;;;;;;;;;14.13;nan;101415.78;4976707;28;20180;-86
2023/02/17 07:05:55;;;;;;;;;;;;;;;14.19;nan;101404.81;4971055;28;19919;-85
2023/02/17 07:08:20;;;;;;;;;;;;;;;14.16;nan;101401.78;4976918;28;20402;-85
2023/02/17 07:10:46;;;;;;;;;;;;;;;14.13;nan;101413.09;4973897;28;19918;-85
2023/02/17 07:13:11;;;;;;;;;;;;;;;14.09;nan;101410.09;4970943;28;19953;-85
2023/02/17 07:15:37;;;;;;;;;;;;;;;14.11;nan;101409.84;4981820;28;19965;-86
2023/02/17 07:18:02;;;;;;;;;;;;;;;14.12;nan;101414.97;4979245;28;20292;-84
2023/02/17 07:20:27;;;;;;;;;;;;;;;14.11;nan;101412.53;4978926;28;20185;-85
2023/02/17 07:22:53;;;;;;;;;;;;;;;14.13;nan;101405.81;4980744;28;20052;-85
2023/02/17 07:25:18;;;;;;;;;;;;;;;14.17;nan;101401.53;4975218;28;19922;-85
2023/02/17 07:27:44;;;;;;;;;;;;;;;14.21;nan;101408.06;4977735;28;19956;-86
2023/02/17 07:30:12;;;;;;;;;;;;;;;14.21;nan;101413.44;4974381;28;20371;-85
2023/02/17 07:32:38;;;;;;;;;;;;;;;14.17;nan;101411.50;4976483;28;19965;-85
2023/02/17 07:35:03;;;;;;;;;;;;;;;14.20;nan;101411.81;4974786;28;19984;-85
2023/02/17 07:37:29;;;;;;;;;;;;;;;14.25;nan;101402.16;4977153;28;19918;-86
2023/02/17 07:39:56;;;;;;;;;;;;;;;14.32;nan;101402.75;4981097;28;19918;-86
2023/02/17 07:42:21;;;;;;;;;;;;;;;14.24;nan;101401.34;4972680;28;19933;-86
2023/02/17 07:44:47;;;;;;;;;;;;;;;14.29;nan;101395.16;4981399;28;19921;-86
2023/02/17 07:47:12;;;;;;;;;;;;;;;14.31;nan;101395.72;4975308;28;20277;-85
2023/02/17 07:49:37;;;;;;;;;;;;;;;14.37;nan;101390.13;4974188;28;19921;-85
2023/02/17 07:52:03;;;;;;;;;;;;;;;14.30;nan;101394.91;4971253;28;19929;-85
2023/02/17 07:54:31;;;;;;;;;;;;;;;14.34;nan;101393.31;4971378;28;19928;-86
2023/02/17 07:56:56;;;;;;;;;;;;;;;14.40;nan;101395.00;4974607;28;20000;-86
2023/02/17 07:59:22;;;;;;;;;;;;;;;14.41;nan;101379.63;4966915;28;19922;-86
2023/02/17 08:01:48;;;;;;;;;;;;;;;14.44;nan;101400.72;4966708;28;19961;-85
2023/02/17 08:04:14;;;;;;;;;;;;;;;14.43;nan;101399.91;4972360;28;20404;-85
2023/02/17 08:06:40;;;;;;;;;;;;;;;14.47;nan;101394.81;4972158;28;20459;-86
2023/02/17 08:14:33;;;;;;;;;;;;;;;14.57;nan;101386.00;4975273;28;20555;-86
2023/02/17 08:16:58;;;;;;;;;;;;;;;14.57;nan;101381.41;4976182;28;20537;-85
2023/02/17 08:19:25;;;;;;;;;;;;;;;14.55;nan;101380.88;4957760;28;19976;-86
2023/02/17 08:21:50;;;;;;;;;;;;;;;14.64;nan;101373.91;4977204;28;19976;-85
2023/02/17 08:24:18;;;;;;;;;;;;;;;14.69;nan;101368.53;4972129;28;20595;-85
2023/02/17 08:26:46;;;;;;;;;;;;;;;14.64;nan;101368.50;4967311;28;19922;-85
2023/02/17 08:29:11;;;;;;;;;;;;;;;14.67;nan;101362.59;4973332;28;19926;-86
2023/02/17 08:31:37;;;;;;;;;;;;;;;14.71;nan;101355.59;4973652;28;19925;-86
2023/02/17 08:34:08;;;;;;;;;;;;;;;14.69;nan;101349.66;4974154;28;20421;-85
2023/02/17 08:36:36;;;;;;;;;;;;;;;14.75;nan;101347.81;4980570;28;19922;-86
2023/02/17 08:39:02;;;;;;;;;;;;;;;14.76;nan;101344.03;4976850;28;19921;-86
2023/02/17 08:41:31;;;;;;;;;;;;;;;14.69;nan;101330.78;4977414;28;19929;-85
2023/02/17 08:43:58;;;;;;;;;;;;;;;14.74;nan;101336.22;4975011;28;20298;-86
2023/02/17 08:46:23;;;;;;;;;;;;;;;14.74;nan;101330.81;4973822;28;19926;-85
2023/02/17 08:48:49;;;;;;;;;;;;;;;14.73;nan;101321.09;4966565;28;19949;-85
2023/02/17 08:51:15;;;;;;;;;;;;;;;14.74;nan;101320.03;4969566;28;19925;-85
2023/02/17 08:53:42;;;;;;;;;;;;;;;14.84;nan;101319.25;4967465;28;19929;-84
2023/02/17 08:56:07;;;;;;;;;;;;;;;14.79;nan;101316.53;4965784;28;20031;-86
2023/02/17 08:58:35;;;;;;;;;;;;;;;14.80;nan;101301.97;4972297;28;20359;-85
2023/02/17 09:01:01;;;;;;;;;;;;;;;14.81;nan;101298.22;4965141;28;20288;-86
2023/02/17 09:03:27;;;;;;;;;;;;;;;14.81;nan;101301.72;4964335;28;19947;-85
2023/02/17 09:05:53;;;;;;;;;;;;;;;14.79;nan;101284.97;4976472;28;19921;-85
2023/02/17 09:08:18;;;;;;;;;;;;;;;14.78;nan;101294.16;4972589;28;20479;-85
2023/02/17 09:10:44;;;;;;;;;;;;;;;14.85;nan;101279.59;4969112;28;19953;-86
2023/02/17 09:13:09;;;;;;;;;;;;;;;14.84;nan;101275.28;4964395;28;19930;-85
2023/02/17 09:15:34;;;;;;;;;;;;;;;14.84;nan;101265.31;4973226;28;19934;-86
2023/02/17 09:18:00;;;;;;;;;;;;;;;14.86;nan;101265.03;4971274;28;20299;-86
2023/02/17 09:20:26;;;;;;;;;;;;;;;14.85;nan;101255.31;4968558;28;20399;-85
2023/02/17 09:22:51;;;;;;;;;;;;;;;14.91;nan;101249.69;4968379;28;19922;-86
2023/02/17 09:25:17;;;;;;;;;;;;;;;14.90;nan;101258.88;4973370;28;20077;-85
2023/02/17 09:27:43;;;;;;;;;;;;;;;14.82;nan;101243.19;4964750;28;19921;-86
2023/02/17 09:30:08;;;;;;;;;;;;;;;14.84;nan;101242.91;4974130;28;19930;-86
2023/02/17 09:32:39;;;;;;;;;;;;;;;14.79;nan;101244.53;4954598;28;19922;-86
2023/02/17 09:35:05;;;;;;;;;;;;;;;14.80;nan;101232.66;4970776;28;19922;-86
2023/02/17 09:37:31;;;;;;;;;;;;;;;14.79;nan;101225.63;4967270;28;19918;-86
2023/02/17 09:40:14;;;;;;;;;;;;;;;14.81;nan;101217.28;4975802;28;19917;-86
2023/02/17 09:45:37;;;;;;;;;;;;;;;14.83;nan;101220.53;4973871;28;19948;-86
2023/02/17 09:48:08;;;;;;;;;;;;;;;14.84;nan;101210.53;4972613;28;19924;-86
2023/02/17 09:51:02;;;;;;;;;;;;;;;;;;;;;
2023/02/17 09:53:42;;;;;;;;;;;;;;;14.91;nan;101211.13;4974931;28;19917;-86
2023/02/17 09:56:10;;;;;;;;;;;;;;;14.97;nan;101210.03;4971132;28;20004;-86
2023/02/17 09:58:39;;;;;;;;;;;;;;;14.93;nan;101219.75;4974444;28;19934;-86
2023/02/17 10:01:33;;;;;;;;;;;;;;;15.01;nan;101211.13;4971334;28;20325;-86
2023/02/17 10:04:02;;;;;;;;;;;;;;;14.97;nan;101204.66;4971235;28;19922;-87
2023/02/17 10:06:30;;;;;;;;;;;;;;;14.98;nan;101195.47;4973670;28;19918;-86
2023/02/17 10:09:01;;;;;;;;;;;;;;;15.01;nan;101200.34;4972178;28;19942;-85
2023/02/17 10:11:53;;;;;;;;;;;;;;;15.06;nan;101192.25;4966372;28;19918;-87
2023/02/17 10:14:30;;;;;;;;;;;;;;;15.05;nan;101194.13;4967629;28;19918;-86
2023/02/17 10:17:00;;;;;;;;;;;;;;;15.09;nan;101186.34;4962068;28;19921;-87
2023/02/17 10:19:31;;;;;;;;;;;;;;;15.11;nan;101179.59;4970906;28;20294;-86
2023/02/17 10:22:09;;;;;;;;;;;;;;;15.16;nan;101170.69;4970308;28;19918;-87
2023/02/17 10:24:35;;;;;;;;;;;;;;;15.16;nan;101159.06;4971406;28;20199;-87
2023/02/17 10:27:21;;;;;;;;;;;;;;;15.21;nan;101154.47;4968250;28;20326;-86
2023/02/17 10:29:46;;;;;;;;;;;;;;;15.22;nan;101148.00;4958170;28;20120;-86
2023/02/17 10:32:22;;;;;;;;;;;;;;;15.30;nan;101144.78;4966529;28;20016;-86
2023/02/17 10:35:07;;;;;;;;;;;;;;;15.29;nan;101137.75;4981408;28;20008;-86
2023/02/17 10:37:53;;;;;;;;;;;;;;;15.33;nan;101124.53;4969758;28;19924;-86
2023/02/17 10:40:21;;;;;;;;;;;;;;;15.36;nan;101114.00;4969274;28;19924;-86
2023/02/17 10:42:47;;;;;;;;;;;;;;;15.38;nan;101108.31;4979702;28;19958;-86
2023/02/17 10:45:12;;;;;;;;;;;;;;;15.34;nan;101097.25;4968624;28;19965;-86
2023/02/17 10:47:38;;;;;;;;;;;;;;;15.31;nan;101076.22;4967321;28;19922;-86
2023/02/17 10:50:06;;;;;;;;;;;;;;;15.34;nan;101091.88;4979195;28;20299;-87
2023/02/17 10:52:35;;;;;;;;;;;;;;;15.38;nan;101084.84;4973494;28;19918;-86
2023/02/17 10:55:13;;;;;;;;;;;;;;;15.34;nan;101078.38;4977397;28;19922;-86
2023/02/17 10:57:39;;;;;;;;;;;;;;;15.26;nan;101083.47;4968485;28;19929;-85
2023/02/17 11:00:08;;;;;;;;;;;;;;;15.26;nan;101073.53;4964014;28;19957;-86
2023/02/17 11:02:36;;;;;;;;;;;;;;;15.26;nan;101065.44;4968081;28;19926;-85
2023/02/17 11:05:02;;;;;;;;;;;;;;;15.18;nan;101055.16;4966014;28;20857;-84
2023/02/17 11:07:35;;;;;;;;;;;;;;;15.22;nan;101050.84;4973657;28;19997;-86
2023/02/17 11:10:02;;;;;;;;;;;;;;;15.21;nan;101051.91;4973622;28;19921;-86
2023/02/17 11:12:27;;;;;;;;;;;;;;;15.25;nan;101052.97;4942739;28;19922;-86
2023/02/17 11:14:53;;;;;;;;;;;;;;;15.26;nan;101035.72;4978370;28;19957;-87
2023/02/17 11:17:19;;;;;;;;;;;;;;;15.25;nan;101026.00;4975819;28;20020;-86
2023/02/17 11:19:54;;;;;;;;;;;;;;;15.25;nan;101008.97;4974141;28;20013;-85
2023/02/17 11:22:39;;;;;;;;;;;;;;;15.26;nan;101006.03;4976228;28;19917;-84
2023/02/17 11:25:25;;;;;;;;;;;;;;;15.29;nan;100994.69;4969361;28;19969;-86
2023/02/17 11:27:58;;;;;;;;;;;;;;;15.25;nan;100988.19;4975105;28;19918;-86
2023/02/17 11:30:24;;;;;;;;;;;;;;;15.31;nan;100976.31;4965217;28;19928;-86
2023/02/17 11:32:50;;;;;;;;;;;;;;;15.28;nan;100976.88;4973654;28;20322;-85
2023/02/17 11:35:21;;;;;;;;;;;;;;;15.34;nan;100972.25;4970837;28;19981;-86
2023/02/17 11:37:46;;;;;;;;;;;;;;;15.29;nan;100970.41;4962250;28;20410;-86
2023/02/17 11:40:25;;;;;;;;;;;;;;;15.28;nan;100962.56;4975331;28;20127;-86
2023/02/17 11:42:54;;;;;;;;;;;;;;;15.34;nan;100954.19;4970063;28;19993;-86
2023/02/17 11:45:21;;;;;;;;;;;;;;;15.30;nan;100931.53;4972216;28;20025;-86
2023/02/17 11:47:53;;;;;;;;;;;;;;;15.28;nan;100939.09;4980292;28;20307;-86
2023/02/17 11:50:30;;;;;;;;;;;;;;;15.26;nan;100922.34;4971342;28;19992;-86
2023/02/17 11:52:56;;;;;;;;;;;;;;;15.30;nan;100926.13;4973353;28;20322;-86
2023/02/17 11:55:25;;;;;;;;;;;;;;;15.29;nan;100921.00;4968917;28;19928;-85
2023/02/17 11:57:54;;;;;;;;;;;;;;;15.30;nan;100915.31;4975164;28;19918;-86
2023/02/17 12:00:19;;;;;;;;;;;;;;;15.32;nan;100915.84;4971266;28;19922;-86
2023/02/17 12:03:04;;;;;;;;;;;;;;;15.27;nan;100896.19;4973092;28;19926;-87
2023/02/17 12:05:49;;;;;;;;;;;;;;;15.33;nan;100878.88;4972432;28;20299;-87
2023/02/17 12:08:33;;;;;;;;;;;;;;;15.36;nan;100871.00;4972773;28;19926;-86
2023/02/17 12:11:05;;;;;;;;;;;;;;;15.46;nan;100866.66;4974634;28;19965;-86
2023/02/17 12:13:46;;;;;;;;;;;;;;;15.47;nan;100866.38;4978119;28;19926;-86
2023/02/17 12:16:17;;;;;;;;;;;;;;;15.48;nan;100859.91;4972307;28;19925;-86
2023/02/17 12:18:42;;;;;;;;;;;;;;;15.56;nan;100861.19;4950356;28;19929;-86
2023/02/17 12:21:11;;;;;;;;;;;;;;;15.66;nan;100850.38;4971575;28;19968;-85
2023/02/17 12:23:51;;;;;;;;;;;;;;;15.57;nan;100855.50;4977357;28;20048;-86
2023/02/17 12:26:27;;;;;;;;;;;;;;;15.59;nan;100836.38;4977091;28;19961;-86
2023/02/17 12:29:02;;;;;;;;;;;;;;;15.68;nan;100827.41;4976359;28;19953;-86
2023/02/17 12:31:30;;;;;;;;;;;;;;;15.71;nan;100821.44;4970898;28;19957;-86
2023/02/17 12:33:59;;;;;;;;;;;;;;;15.73;nan;100813.06;4967870;28;20009;-86
2023/02/17 12:36:32;;;;;;;;;;;;;;;15.77;nan;100797.09;4976526;28;19918;-85
2023/02/17 12:39:02;;;;;;;;;;;;;;;15.72;nan;100806.03;4946152;28;19989;-86
2023/02/17 12:41:35;;;;;;;;;;;;;;;15.82;nan;100815.97;4965898;28;19926;-85
2023/02/17 12:44:20;;;;;;;;;;;;;;;15.91;nan;100808.88;4965798;28;19948;-85
2023/02/17 12:46:49;;;;;;;;;;;;;;;15.94;nan;100809.09;4974265;28;19922;-85
2023/02/17 12:49:17;;;;;;;;;;;;;;;15.93;nan;100804.78;4971221;28;19929;-86
2023/02/17 12:51:56;;;;;;;;;;;;;;;16.06;nan;100808.75;4971143;28;20549;-86
2023/02/17 12:54:40;;;;;;;;;;;;;;;16.09;nan;100804.69;4958501;28;19929;-87
2023/02/17 12:57:09;;;;;;;;;;;;;;;16.13;nan;100797.59;4979253;28;19942;-85
2023/02/17 12:59:34;;;;;;;;;;;;;;;16.14;nan;100788.41;4978101;28;20019;-86
2023/02/17 13:02:01;;;;;;;;;;;;;;;16.18;nan;100801.09;4967574;28;19972;-86
2023/02/17 13:04:27;;;;;;;;;;;;;;;16.19;nan;100791.09;4965841;28;20013;-87
2023/02/17 13:07:19;;;;;;;;;;;;;;;16.20;nan;100784.59;4973469;28;20016;-86
2023/02/17 13:09:45;;;;;;;;;;;;;;;16.24;nan;100797.25;4957202;28;19926;-87
2023/02/17 13:12:25;;;;;;;;;;;;;;;16.26;nan;100775.34;4976135;28;19914;-86